sensor_id;sensor_type;location;lat;lon;timestamp;P1;durP1;ratioP1;P2;durP2;ratioP2
10063;SDS011;5071;52.360;13.134;2022-07-22T00:00:31;6.67;;;5.43;;
10063;SDS011;5071;52.360;13.134;2022-07-22T00:05:33;6.10;;;5.23;;
10063;SDS011;5071;52.360;13.134;2022-07-22T00:10:36;6.93;;;5.07;;
10063;SDS011;5071;52.360;13.134;2022-07-22T00:15:38;6.90;;;5.73;;
10063;SDS011;5071;52.360;13.134;2022-07-22T00:20:40;7.67;;;6.13;;
10063;SDS011;5071;52.360;13.134;2022-07-22T00:25:44;8.43;;;5.37;;
10063;SDS011;5071;52.360;13.134;2022-07-22T00:30:45;5.90;;;5.17;;
10063;SDS011;5071;52.360;13.134;2022-07-22T00:35:48;5.63;;;5.03;;
10063;SDS011;5071;52.360;13.134;2022-07-22T00:40:51;6.73;;;5.07;;
10063;SDS011;5071;52.360;13.134;2022-07-22T00:45:53;4.97;;;4.47;;
10063;SDS011;5071;52.360;13.134;2022-07-22T00:50:55;5.87;;;4.40;;
10063;SDS011;5071;52.360;13.134;2022-07-22T00:55:58;4.93;;;4.43;;
10063;SDS011;5071;52.360;13.134;2022-07-22T01:01:01;3.97;;;3.57;;
10063;SDS011;5071;52.360;13.134;2022-07-22T01:06:03;6.90;;;4.47;;
10063;SDS011;5071;52.360;13.134;2022-07-22T01:11:08;6.80;;;4.20;;
10063;SDS011;5071;52.360;13.134;2022-07-22T01:16:11;4.13;;;3.73;;
10063;SDS011;5071;52.360;13.134;2022-07-22T01:21:15;4.07;;;3.27;;
10063;SDS011;5071;52.360;13.134;2022-07-22T01:26:18;4.70;;;3.93;;
10063;SDS011;5071;52.360;13.134;2022-07-22T01:31:21;3.50;;;3.20;;
10063;SDS011;5071;52.360;13.134;2022-07-22T01:36:24;4.63;;;3.93;;
10063;SDS011;5071;52.360;13.134;2022-07-22T01:41:27;4.87;;;3.80;;
10063;SDS011;5071;52.360;13.134;2022-07-22T01:46:30;4.80;;;4.30;;
10063;SDS011;5071;52.360;13.134;2022-07-22T01:51:33;4.97;;;3.73;;
10063;SDS011;5071;52.360;13.134;2022-07-22T01:56:35;5.43;;;4.47;;
10063;SDS011;5071;52.360;13.134;2022-07-22T02:01:38;6.70;;;5.30;;
10063;SDS011;5071;52.360;13.134;2022-07-22T02:06:42;6.50;;;5.33;;
10063;SDS011;5071;52.360;13.134;2022-07-22T02:11:44;6.30;;;5.20;;
10063;SDS011;5071;52.360;13.134;2022-07-22T02:16:47;6.67;;;4.90;;
10063;SDS011;5071;52.360;13.134;2022-07-22T02:21:50;6.00;;;5.40;;
10063;SDS011;5071;52.360;13.134;2022-07-22T02:26:52;7.07;;;5.60;;
10063;SDS011;5071;52.360;13.134;2022-07-22T02:31:54;6.80;;;5.40;;
10063;SDS011;5071;52.360;13.134;2022-07-22T02:36:58;6.33;;;5.60;;
10063;SDS011;5071;52.360;13.134;2022-07-22T02:42:00;6.80;;;5.47;;
10063;SDS011;5071;52.360;13.134;2022-07-22T02:47:02;8.03;;;6.33;;
10063;SDS011;5071;52.360;13.134;2022-07-22T02:52:06;6.93;;;6.10;;
10063;SDS011;5071;52.360;13.134;2022-07-22T02:57:08;7.30;;;5.80;;
10063;SDS011;5071;52.360;13.134;2022-07-22T03:02:10;6.80;;;6.10;;
10063;SDS011;5071;52.360;13.134;2022-07-22T03:07:13;10.20;;;6.77;;
10063;SDS011;5071;52.360;13.134;2022-07-22T03:12:15;9.17;;;6.10;;
10063;SDS011;5071;52.360;13.134;2022-07-22T03:17:17;8.80;;;6.60;;
10063;SDS011;5071;52.360;13.134;2022-07-22T03:22:20;8.30;;;6.00;;
10063;SDS011;5071;52.360;13.134;2022-07-22T03:27:22;8.87;;;7.13;;
10063;SDS011;5071;52.360;13.134;2022-07-22T03:32:25;8.47;;;6.43;;
10063;SDS011;5071;52.360;13.134;2022-07-22T03:37:28;8.87;;;7.40;;
10063;SDS011;5071;52.360;13.134;2022-07-22T03:42:30;9.80;;;7.17;;
10063;SDS011;5071;52.360;13.134;2022-07-22T03:47:32;8.13;;;7.07;;
10063;SDS011;5071;52.360;13.134;2022-07-22T03:52:36;13.37;;;8.23;;
10063;SDS011;5071;52.360;13.134;2022-07-22T03:57:38;9.60;;;7.30;;
10063;SDS011;5071;52.360;13.134;2022-07-22T04:02:40;9.40;;;6.70;;
10063;SDS011;5071;52.360;13.134;2022-07-22T04:07:44;10.47;;;7.40;;
10063;SDS011;5071;52.360;13.134;2022-07-22T04:12:45;8.33;;;7.40;;
10063;SDS011;5071;52.360;13.134;2022-07-22T04:17:47;9.00;;;7.60;;
10063;SDS011;5071;52.360;13.134;2022-07-22T04:22:51;10.77;;;7.33;;
10063;SDS011;5071;52.360;13.134;2022-07-22T04:27:53;10.17;;;7.87;;
10063;SDS011;5071;52.360;13.134;2022-07-22T04:32:55;7.53;;;6.43;;
10063;SDS011;5071;52.360;13.134;2022-07-22T04:37:59;7.13;;;6.37;;
10063;SDS011;5071;52.360;13.134;2022-07-22T04:43:01;8.00;;;6.70;;
10063;SDS011;5071;52.360;13.134;2022-07-22T04:48:03;8.07;;;7.17;;
10063;SDS011;5071;52.360;13.134;2022-07-22T04:53:06;8.00;;;6.87;;
10063;SDS011;5071;52.360;13.134;2022-07-22T04:58:11;8.73;;;7.30;;
10063;SDS011;5071;52.360;13.134;2022-07-22T05:03:18;11.70;;;7.60;;
10063;SDS011;5071;52.360;13.134;2022-07-22T05:08:21;9.90;;;7.67;;
10063;SDS011;5071;52.360;13.134;2022-07-22T05:13:23;7.47;;;6.67;;
10063;SDS011;5071;52.360;13.134;2022-07-22T05:18:25;8.27;;;7.27;;
10063;SDS011;5071;52.360;13.134;2022-07-22T05:23:28;8.43;;;6.33;;
10063;SDS011;5071;52.360;13.134;2022-07-22T05:28:30;7.90;;;7.10;;
10063;SDS011;5071;52.360;13.134;2022-07-22T05:33:33;11.17;;;7.53;;
10063;SDS011;5071;52.360;13.134;2022-07-22T05:38:37;8.27;;;6.90;;
10063;SDS011;5071;52.360;13.134;2022-07-22T05:43:39;7.40;;;6.47;;
10063;SDS011;5071;52.360;13.134;2022-07-22T05:48:42;7.67;;;6.87;;
10063;SDS011;5071;52.360;13.134;2022-07-22T05:53:45;7.20;;;6.50;;
10063;SDS011;5071;52.360;13.134;2022-07-22T05:58:50;7.70;;;6.33;;
10063;SDS011;5071;52.360;13.134;2022-07-22T06:03:52;7.07;;;6.37;;
10063;SDS011;5071;52.360;13.134;2022-07-22T06:08:55;6.33;;;5.63;;
10063;SDS011;5071;52.360;13.134;2022-07-22T06:13:58;9.43;;;6.37;;
10063;SDS011;5071;52.360;13.134;2022-07-22T06:19:00;6.90;;;6.30;;
10063;SDS011;5071;52.360;13.134;2022-07-22T06:24:04;13.37;;;6.90;;
10063;SDS011;5071;52.360;13.134;2022-07-22T06:29:06;7.23;;;6.20;;
10063;SDS011;5071;52.360;13.134;2022-07-22T06:34:09;7.20;;;6.43;;
10063;SDS011;5071;52.360;13.134;2022-07-22T06:39:12;6.70;;;5.97;;
10063;SDS011;5071;52.360;13.134;2022-07-22T06:44:14;6.28;;;5.63;;
10063;SDS011;5071;52.360;13.134;2022-07-22T06:49:15;7.05;;;6.05;;
10063;SDS011;5071;52.360;13.134;2022-07-22T06:54:20;7.47;;;6.63;;
10063;SDS011;5071;52.360;13.134;2022-07-22T06:59:22;6.65;;;5.95;;
10063;SDS011;5071;52.360;13.134;2022-07-22T07:04:25;7.43;;;6.37;;
10063;SDS011;5071;52.360;13.134;2022-07-22T07:09:28;7.22;;;6.43;;
10063;SDS011;5071;52.360;13.134;2022-07-22T07:14:29;5.82;;;5.22;;
10063;SDS011;5071;52.360;13.134;2022-07-22T07:19:32;6.47;;;5.07;;
10063;SDS011;5071;52.360;13.134;2022-07-22T07:24:35;4.93;;;4.32;;
10063;SDS011;5071;52.360;13.134;2022-07-22T07:29:39;4.65;;;4.15;;
10063;SDS011;5071;52.360;13.134;2022-07-22T07:34:41;4.43;;;4.00;;
10063;SDS011;5071;52.360;13.134;2022-07-22T07:39:44;5.25;;;4.80;;
10063;SDS011;5071;52.360;13.134;2022-07-22T07:44:47;4.40;;;4.00;;
10063;SDS011;5071;52.360;13.134;2022-07-22T07:49:49;3.72;;;3.38;;
10063;SDS011;5071;52.360;13.134;2022-07-22T07:54:53;3.90;;;3.47;;
10063;SDS011;5071;52.360;13.134;2022-07-22T08:00:13;4.38;;;3.95;;
10063;SDS011;5071;52.360;13.134;2022-07-22T08:05:17;5.25;;;4.22;;
10063;SDS011;5071;52.360;13.134;2022-07-22T08:10:23;4.07;;;3.65;;
10063;SDS011;5071;52.360;13.134;2022-07-22T08:15:45;4.13;;;3.72;;
10063;SDS011;5071;52.360;13.134;2022-07-22T08:20:47;7.25;;;3.50;;
10063;SDS011;5071;52.360;13.134;2022-07-22T08:25:51;3.88;;;3.58;;
10063;SDS011;5071;52.360;13.134;2022-07-22T08:30:53;3.80;;;3.40;;
10063;SDS011;5071;52.360;13.134;2022-07-22T08:35:55;2.92;;;2.63;;
10063;SDS011;5071;52.360;13.134;2022-07-22T08:40:58;2.60;;;2.40;;
10063;SDS011;5071;52.360;13.134;2022-07-22T08:46:04;3.80;;;3.28;;
10063;SDS011;5071;52.360;13.134;2022-07-22T08:51:06;3.42;;;3.13;;
10063;SDS011;5071;52.360;13.134;2022-07-22T08:56:12;3.03;;;2.72;;
10063;SDS011;5071;52.360;13.134;2022-07-22T09:01:15;3.38;;;3.08;;
10063;SDS011;5071;52.360;13.134;2022-07-22T09:06:19;5.82;;;3.50;;
10063;SDS011;5071;52.360;13.134;2022-07-22T09:11:24;4.00;;;3.60;;
10063;SDS011;5071;52.360;13.134;2022-07-22T09:16:41;3.05;;;2.75;;
10063;SDS011;5071;52.360;13.134;2022-07-22T09:21:45;4.22;;;3.83;;
10063;SDS011;5071;52.360;13.134;2022-07-22T09:26:48;3.40;;;3.10;;
10063;SDS011;5071;52.360;13.134;2022-07-22T09:31:51;3.10;;;2.90;;
10063;SDS011;5071;52.360;13.134;2022-07-22T09:36:55;5.15;;;3.42;;
10063;SDS011;5071;52.360;13.134;2022-07-22T09:42:00;5.13;;;3.22;;
10063;SDS011;5071;52.360;13.134;2022-07-22T09:47:02;3.00;;;2.80;;
10063;SDS011;5071;52.360;13.134;2022-07-22T09:52:04;3.97;;;3.20;;
10063;SDS011;5071;52.360;13.134;2022-07-22T09:57:08;3.45;;;3.15;;
10063;SDS011;5071;52.360;13.134;2022-07-22T10:02:10;4.38;;;2.97;;
10063;SDS011;5071;52.360;13.134;2022-07-22T10:07:13;3.15;;;2.85;;
10063;SDS011;5071;52.360;13.134;2022-07-22T10:12:17;3.10;;;2.42;;
10063;SDS011;5071;52.360;13.134;2022-07-22T10:17:21;3.25;;;2.95;;
10063;SDS011;5071;52.360;13.134;2022-07-22T10:27:51;6.63;;;2.22;;
10063;SDS011;5071;52.360;13.134;2022-07-22T10:33:07;3.17;;;2.47;;
10063;SDS011;5071;52.360;13.134;2022-07-22T10:38:11;3.03;;;2.08;;
10063;SDS011;5071;52.360;13.134;2022-07-22T10:43:15;3.72;;;3.00;;
10063;SDS011;5071;52.360;13.134;2022-07-22T10:48:18;3.35;;;3.05;;
10063;SDS011;5071;52.360;13.134;2022-07-22T10:53:24;3.60;;;3.30;;
10063;SDS011;5071;52.360;13.134;2022-07-22T10:58:41;3.35;;;3.05;;
10063;SDS011;5071;52.360;13.134;2022-07-22T11:03:53;3.13;;;2.67;;
10063;SDS011;5071;52.360;13.134;2022-07-22T11:08:58;3.05;;;2.78;;
10063;SDS011;5071;52.360;13.134;2022-07-22T11:14:15;2.42;;;2.22;;
10063;SDS011;5071;52.360;13.134;2022-07-22T11:19:20;2.28;;;2.08;;
10063;SDS011;5071;52.360;13.134;2022-07-22T11:24:23;2.75;;;2.55;;
10063;SDS011;5071;52.360;13.134;2022-07-22T11:29:29;2.78;;;2.22;;
10063;SDS011;5071;52.360;13.134;2022-07-22T11:34:35;5.15;;;2.63;;
10063;SDS011;5071;52.360;13.134;2022-07-22T11:39:38;2.45;;;2.25;;
10063;SDS011;5071;52.360;13.134;2022-07-22T11:44:42;2.85;;;2.65;;
10063;SDS011;5071;52.360;13.134;2022-07-22T11:49:45;2.47;;;2.28;;
10063;SDS011;5071;52.360;13.134;2022-07-22T11:54:48;3.78;;;2.58;;
10063;SDS011;5071;52.360;13.134;2022-07-22T11:59:51;1.98;;;1.88;;
10063;SDS011;5071;52.360;13.134;2022-07-22T12:04:53;1.85;;;1.75;;
10063;SDS011;5071;52.360;13.134;2022-07-22T12:10:05;2.30;;;1.80;;
10063;SDS011;5071;52.360;13.134;2022-07-22T12:15:10;3.15;;;1.80;;
10063;SDS011;5071;52.360;13.134;2022-07-22T12:20:32;2.03;;;1.83;;
10063;SDS011;5071;52.360;13.134;2022-07-22T12:25:48;1.45;;;1.35;;
10063;SDS011;5071;52.360;13.134;2022-07-22T12:30:53;1.35;;;1.25;;
10063;SDS011;5071;52.360;13.134;2022-07-22T12:35:58;1.40;;;1.30;;
10063;SDS011;5071;52.360;13.134;2022-07-22T12:41:22;1.58;;;1.48;;
10063;SDS011;5071;52.360;13.134;2022-07-22T12:46:26;1.50;;;1.40;;
10063;SDS011;5071;52.360;13.134;2022-07-22T12:51:29;1.50;;;1.40;;
10063;SDS011;5071;52.360;13.134;2022-07-22T12:56:30;1.70;;;1.60;;
10063;SDS011;5071;52.360;13.134;2022-07-22T13:01:38;1.98;;;1.83;;
10063;SDS011;5071;52.360;13.134;2022-07-22T13:06:40;1.63;;;1.52;;
10063;SDS011;5071;52.360;13.134;2022-07-22T13:11:43;1.48;;;1.38;;
10063;SDS011;5071;52.360;13.134;2022-07-22T13:16:48;1.45;;;1.35;;
10063;SDS011;5071;52.360;13.134;2022-07-22T13:21:50;1.80;;;1.70;;
10063;SDS011;5071;52.360;13.134;2022-07-22T13:26:52;1.88;;;1.40;;
10063;SDS011;5071;52.360;13.134;2022-07-22T13:31:56;3.08;;;1.52;;
10063;SDS011;5071;52.360;13.134;2022-07-22T13:37:18;2.35;;;1.60;;
10063;SDS011;5071;52.360;13.134;2022-07-22T13:42:21;1.52;;;1.42;;
10063;SDS011;5071;52.360;13.134;2022-07-22T13:47:25;1.50;;;1.40;;
10063;SDS011;5071;52.360;13.134;2022-07-22T13:52:27;1.67;;;1.50;;
10063;SDS011;5071;52.360;13.134;2022-07-22T13:57:29;1.95;;;1.35;;
10063;SDS011;5071;52.360;13.134;2022-07-22T14:02:32;1.40;;;1.30;;
10063;SDS011;5071;52.360;13.134;2022-07-22T14:07:34;1.45;;;1.35;;
10063;SDS011;5071;52.360;13.134;2022-07-22T14:12:35;1.20;;;1.10;;
10063;SDS011;5071;52.360;13.134;2022-07-22T14:17:39;1.27;;;1.17;;
10063;SDS011;5071;52.360;13.134;2022-07-22T14:22:42;1.40;;;1.05;;
10063;SDS011;5071;52.360;13.134;2022-07-22T14:27:44;1.40;;;1.20;;
10063;SDS011;5071;52.360;13.134;2022-07-22T14:32:47;1.35;;;1.20;;
10063;SDS011;5071;52.360;13.134;2022-07-22T14:37:49;1.02;;;1.02;;
10063;SDS011;5071;52.360;13.134;2022-07-22T14:42:51;1.83;;;1.30;;
10063;SDS011;5071;52.360;13.134;2022-07-22T14:48:15;1.35;;;1.25;;
10063;SDS011;5071;52.360;13.134;2022-07-22T14:53:17;1.40;;;1.30;;
10063;SDS011;5071;52.360;13.134;2022-07-22T14:58:19;1.35;;;1.25;;
10063;SDS011;5071;52.360;13.134;2022-07-22T15:03:22;1.13;;;1.05;;
10063;SDS011;5071;52.360;13.134;2022-07-22T15:08:24;1.40;;;1.30;;
10063;SDS011;5071;52.360;13.134;2022-07-22T15:13:26;1.65;;;1.50;;
10063;SDS011;5071;52.360;13.134;2022-07-22T15:18:30;2.08;;;1.63;;
10063;SDS011;5071;52.360;13.134;2022-07-22T15:23:32;1.60;;;1.40;;
10063;SDS011;5071;52.360;13.134;2022-07-22T15:28:34;1.52;;;1.42;;
10063;SDS011;5071;52.360;13.134;2022-07-22T15:33:37;2.17;;;1.80;;
10063;SDS011;5071;52.360;13.134;2022-07-22T15:38:39;1.70;;;1.60;;
10063;SDS011;5071;52.360;13.134;2022-07-22T15:43:42;2.10;;;1.90;;
10063;SDS011;5071;52.360;13.134;2022-07-22T15:48:45;2.58;;;1.40;;
10063;SDS011;5071;52.360;13.134;2022-07-22T15:53:47;2.67;;;2.10;;
10063;SDS011;5071;52.360;13.134;2022-07-22T15:58:49;2.03;;;1.60;;
10063;SDS011;5071;52.360;13.134;2022-07-22T16:04:12;2.63;;;1.77;;
10063;SDS011;5071;52.360;13.134;2022-07-22T16:09:14;3.22;;;2.20;;
10063;SDS011;5071;52.360;13.134;2022-07-22T16:14:16;1.92;;;1.73;;
10063;SDS011;5071;52.360;13.134;2022-07-22T16:19:19;3.63;;;2.28;;
10063;SDS011;5071;52.360;13.134;2022-07-22T16:24:21;2.33;;;1.85;;
10063;SDS011;5071;52.360;13.134;2022-07-22T16:29:23;3.05;;;1.80;;
10063;SDS011;5071;52.360;13.134;2022-07-22T16:34:26;2.38;;;2.08;;
10063;SDS011;5071;52.360;13.134;2022-07-22T16:39:28;2.45;;;2.13;;
10063;SDS011;5071;52.360;13.134;2022-07-22T16:44:30;2.55;;;2.20;;
10063;SDS011;5071;52.360;13.134;2022-07-22T16:49:34;2.67;;;1.80;;
10063;SDS011;5071;52.360;13.134;2022-07-22T16:54:39;3.10;;;2.20;;
10063;SDS011;5071;52.360;13.134;2022-07-22T16:59:43;2.63;;;2.42;;
10063;SDS011;5071;52.360;13.134;2022-07-22T17:04:47;2.83;;;2.45;;
10063;SDS011;5071;52.360;13.134;2022-07-22T17:09:50;2.05;;;1.70;;
10063;SDS011;5071;52.360;13.134;2022-07-22T17:14:52;4.20;;;2.30;;
10063;SDS011;5071;52.360;13.134;2022-07-22T17:19:56;2.63;;;1.80;;
10063;SDS011;5071;52.360;13.134;2022-07-22T17:25:00;2.60;;;2.10;;
10063;SDS011;5071;52.360;13.134;2022-07-22T17:30:16;2.13;;;2.00;;
10063;SDS011;5071;52.360;13.134;2022-07-22T17:35:19;2.10;;;1.90;;
10063;SDS011;5071;52.360;13.134;2022-07-22T17:40:21;1.80;;;1.70;;
10063;SDS011;5071;52.360;13.134;2022-07-22T17:45:23;3.40;;;1.58;;
10063;SDS011;5071;52.360;13.134;2022-07-22T17:50:29;2.10;;;1.90;;
10063;SDS011;5071;52.360;13.134;2022-07-22T17:55:31;3.47;;;2.15;;
10063;SDS011;5071;52.360;13.134;2022-07-22T18:00:33;1.75;;;1.60;;
10063;SDS011;5071;52.360;13.134;2022-07-22T18:05:36;3.03;;;2.10;;
10063;SDS011;5071;52.360;13.134;2022-07-22T18:10:38;2.35;;;2.13;;
10063;SDS011;5071;52.360;13.134;2022-07-22T18:15:40;1.95;;;1.73;;
10063;SDS011;5071;52.360;13.134;2022-07-22T18:20:43;2.38;;;1.90;;
10063;SDS011;5071;52.360;13.134;2022-07-22T18:25:45;2.90;;;2.42;;
10063;SDS011;5071;52.360;13.134;2022-07-22T18:30:47;2.58;;;2.08;;
10063;SDS011;5071;52.360;13.134;2022-07-22T18:35:50;3.00;;;2.47;;
10063;SDS011;5071;52.360;13.134;2022-07-22T18:40:53;2.97;;;2.43;;
10063;SDS011;5071;52.360;13.134;2022-07-22T18:45:55;3.85;;;2.28;;
10063;SDS011;5071;52.360;13.134;2022-07-22T18:50:59;3.57;;;2.27;;
10063;SDS011;5071;52.360;13.134;2022-07-22T18:56:01;2.70;;;2.50;;
10063;SDS011;5071;52.360;13.134;2022-07-22T19:01:03;2.73;;;2.20;;
10063;SDS011;5071;52.360;13.134;2022-07-22T19:06:07;3.07;;;2.53;;
10063;SDS011;5071;52.360;13.134;2022-07-22T19:11:09;3.23;;;2.30;;
10063;SDS011;5071;52.360;13.134;2022-07-22T19:16:10;2.60;;;2.27;;
10063;SDS011;5071;52.360;13.134;2022-07-22T19:21:14;5.57;;;2.40;;
10063;SDS011;5071;52.360;13.134;2022-07-22T19:26:17;3.93;;;2.37;;
10063;SDS011;5071;52.360;13.134;2022-07-22T19:31:19;2.70;;;2.50;;
10063;SDS011;5071;52.360;13.134;2022-07-22T19:36:29;3.17;;;2.60;;
10063;SDS011;5071;52.360;13.134;2022-07-22T19:41:31;4.67;;;2.67;;
10063;SDS011;5071;52.360;13.134;2022-07-22T19:46:33;3.53;;;2.80;;
10063;SDS011;5071;52.360;13.134;2022-07-22T19:51:36;3.20;;;2.80;;
10063;SDS011;5071;52.360;13.134;2022-07-22T19:56:38;5.40;;;3.03;;
10063;SDS011;5071;52.360;13.134;2022-07-22T20:01:40;3.50;;;2.60;;
10063;SDS011;5071;52.360;13.134;2022-07-22T20:06:44;5.43;;;3.07;;
10063;SDS011;5071;52.360;13.134;2022-07-22T20:11:46;4.50;;;2.63;;
10063;SDS011;5071;52.360;13.134;2022-07-22T20:16:48;3.17;;;2.83;;
10063;SDS011;5071;52.360;13.134;2022-07-22T20:21:51;3.90;;;2.47;;
10063;SDS011;5071;52.360;13.134;2022-07-22T20:26:54;3.47;;;2.87;;
10063;SDS011;5071;52.360;13.134;2022-07-22T20:31:56;3.60;;;3.00;;
10063;SDS011;5071;52.360;13.134;2022-07-22T20:36:59;4.23;;;2.70;;
10063;SDS011;5071;52.360;13.134;2022-07-22T20:42:01;4.70;;;3.30;;
10063;SDS011;5071;52.360;13.134;2022-07-22T20:47:23;4.93;;;3.17;;
10063;SDS011;5071;52.360;13.134;2022-07-22T20:52:26;5.00;;;3.23;;
10063;SDS011;5071;52.360;13.134;2022-07-22T20:57:28;3.43;;;2.93;;
10063;SDS011;5071;52.360;13.134;2022-07-22T21:02:30;3.63;;;3.17;;
10063;SDS011;5071;52.360;13.134;2022-07-22T21:07:34;3.93;;;3.07;;
10063;SDS011;5071;52.360;13.134;2022-07-22T21:12:36;3.23;;;2.70;;
10063;SDS011;5071;52.360;13.134;2022-07-22T21:17:38;6.43;;;3.03;;
10063;SDS011;5071;52.360;13.134;2022-07-22T21:22:41;3.87;;;2.83;;
10063;SDS011;5071;52.360;13.134;2022-07-22T21:27:43;5.00;;;3.17;;
10063;SDS011;5071;52.360;13.134;2022-07-22T21:32:45;3.27;;;2.90;;
10063;SDS011;5071;52.360;13.134;2022-07-22T21:37:48;4.27;;;3.40;;
10063;SDS011;5071;52.360;13.134;2022-07-22T21:42:50;4.00;;;3.40;;
10063;SDS011;5071;52.360;13.134;2022-07-22T21:47:52;3.50;;;3.20;;
10063;SDS011;5071;52.360;13.134;2022-07-22T21:52:55;5.00;;;3.60;;
10063;SDS011;5071;52.360;13.134;2022-07-22T21:57:57;4.27;;;3.70;;
10063;SDS011;5071;52.360;13.134;2022-07-22T22:02:59;3.80;;;3.33;;
10063;SDS011;5071;52.360;13.134;2022-07-22T22:08:03;4.53;;;3.83;;
10063;SDS011;5071;52.360;13.134;2022-07-22T22:13:05;3.87;;;3.23;;
10063;SDS011;5071;52.360;13.134;2022-07-22T22:18:07;3.90;;;3.27;;
10063;SDS011;5071;52.360;13.134;2022-07-22T22:23:10;3.77;;;3.37;;
10063;SDS011;5071;52.360;13.134;2022-07-22T22:28:12;3.40;;;3.03;;
10063;SDS011;5071;52.360;13.134;2022-07-22T22:33:14;3.80;;;3.40;;
10063;SDS011;5071;52.360;13.134;2022-07-22T22:38:17;5.70;;;3.90;;
10063;SDS011;5071;52.360;13.134;2022-07-22T22:43:19;3.97;;;3.30;;
10063;SDS011;5071;52.360;13.134;2022-07-22T22:48:21;4.27;;;3.87;;
10063;SDS011;5071;52.360;13.134;2022-07-22T22:53:24;5.07;;;4.00;;
10063;SDS011;5071;52.360;13.134;2022-07-22T22:58:26;6.80;;;3.90;;
10063;SDS011;5071;52.360;13.134;2022-07-22T23:03:28;4.50;;;3.87;;
10063;SDS011;5071;52.360;13.134;2022-07-22T23:08:32;5.10;;;3.90;;
10063;SDS011;5071;52.360;13.134;2022-07-22T23:13:33;5.03;;;3.70;;
10063;SDS011;5071;52.360;13.134;2022-07-22T23:18:35;6.43;;;4.07;;
10063;SDS011;5071;52.360;13.134;2022-07-22T23:23:38;6.20;;;3.80;;
10063;SDS011;5071;52.360;13.134;2022-07-22T23:28:40;5.23;;;3.90;;
10063;SDS011;5071;52.360;13.134;2022-07-22T23:33:42;4.70;;;4.20;;
10063;SDS011;5071;52.360;13.134;2022-07-22T23:38:45;4.67;;;3.80;;
10063;SDS011;5071;52.360;13.134;2022-07-22T23:43:47;4.10;;;3.70;;
10063;SDS011;5071;52.360;13.134;2022-07-22T23:48:49;4.13;;;3.50;;
10063;SDS011;5071;52.360;13.134;2022-07-22T23:53:52;5.30;;;4.00;;
10063;SDS011;5071;52.360;13.134;2022-07-22T23:58:55;5.77;;;3.77;;
